Time;durP1;ratioP1;P1;durP2;ratioP2;P2;SDS_P1;SDS_P2;PMS_P1;PMS_P2;Temp;Humidity;BMP_temperature;BMP_pressure;BME280_temperature;BME280_humidity;BME280_pressure;Samples;Min_cycle;Max_cycle;Signal;HPM_P1;HPM_P2
2023/09/23 00:02:59;;;;;;;21.63;13.15;;;;;;;8.51;100.00;100496.06;10440262;28;20488;-75
2023/09/23 00:08:00;;;;;;;15.35;12.77;;;;;;;8.39;100.00;100498.00;10439761;28;20036;-74
2023/09/23 00:13:00;;;;;;;22.05;16.23;;;;;;;8.33;100.00;100508.13;10437179;28;20036;-74
2023/09/23 00:18:02;;;;;;;33.72;18.98;;;;;;;8.31;100.00;100502.84;10439139;28;20124;-74
2023/09/23 00:23:05;;;;;;;22.60;17.27;;;;;;;8.26;100.00;100503.44;10418513;28;20587;-74
2023/09/23 00:28:11;;;;;;;24.75;17.48;;;;;;;8.35;100.00;100498.69;10439932;28;20049;-75
2023/09/23 00:33:16;;;;;;;26.85;18.17;;;;;;;8.42;100.00;100497.28;10422749;28;20037;-75
2023/09/23 00:38:17;;;;;;;26.55;18.83;;;;;;;8.32;100.00;100491.63;10438480;28;20483;-75
2023/09/23 00:43:18;;;;;;;47.45;24.05;;;;;;;8.33;100.00;100496.00;10404182;28;20131;-74
2023/09/23 00:48:20;;;;;;;27.00;21.42;;;;;;;8.16;100.00;100508.16;10416171;28;20045;-75
2023/09/23 00:53:22;;;;;;;33.35;21.27;;;;;;;8.12;100.00;100523.59;10418989;28;20452;-75
2023/09/23 00:58:22;;;;;;;66.03;26.17;;;;;;;8.08;100.00;100528.63;10439100;28;20079;-75
2023/09/23 01:03:23;;;;;;;50.85;27.08;;;;;;;8.20;100.00;100540.53;10418244;28;20211;-75
2023/09/23 01:08:24;;;;;;;36.58;22.63;;;;;;;8.21;100.00;100534.50;10434589;28;20652;-74
2023/09/23 01:13:29;;;;;;;32.55;16.95;;;;;;;8.26;100.00;100535.63;10436281;28;20041;-74
2023/09/23 01:18:30;;;;;;;34.85;21.63;;;;;;;8.23;100.00;100540.69;10441135;28;20508;-74
2023/09/23 01:23:34;;;;;;;32.95;21.45;;;;;;;8.34;100.00;100549.03;10422079;28;20079;-75
2023/09/23 01:28:34;;;;;;;31.48;18.80;;;;;;;8.45;100.00;100547.00;10437323;28;20127;-75
2023/09/23 01:33:35;;;;;;;32.72;16.83;;;;;;;8.53;100.00;100550.94;10438093;28;20044;-74
2023/09/23 01:38:37;;;;;;;24.52;16.42;;;;;;;8.48;100.00;100566.28;10413892;28;20037;-74
2023/09/23 01:43:37;;;;;;;23.33;13.63;;;;;;;8.45;100.00;100573.09;10436590;28;20040;-74
2023/09/23 01:48:38;;;;;;;42.78;14.70;;;;;;;8.50;100.00;100575.13;10437589;28;20122;-75
2023/09/23 01:53:38;;;;;;;24.67;13.40;;;;;;;8.44;100.00;100576.50;10444066;28;20037;-74
2023/09/23 01:58:39;;;;;;;18.15;10.65;;;;;;;8.50;100.00;100575.13;10445836;28;20033;-74
2023/09/23 02:03:41;;;;;;;14.48;8.80;;;;;;;8.60;100.00;100578.19;10445768;28;20076;-74
2023/09/23 02:08:42;;;;;;;19.98;10.88;;;;;;;8.56;100.00;100584.09;10444648;28;20668;-74
2023/09/23 02:13:42;;;;;;;34.03;10.27;;;;;;;8.59;100.00;100585.16;10445386;28;20049;-75
2023/09/23 02:18:45;;;;;;;19.70;9.50;;;;;;;8.56;100.00;100599.72;10444084;28;20447;-75
2023/09/23 02:23:46;;;;;;;14.85;8.30;;;;;;;8.50;100.00;100610.75;10446021;28;20036;-74
2023/09/23 02:28:47;;;;;;;11.00;7.20;;;;;;;8.47;100.00;100603.63;10438915;28;20041;-74
2023/09/23 02:33:48;;;;;;;21.60;8.27;;;;;;;8.44;100.00;100616.50;10445063;28;20564;-74
2023/09/23 02:38:48;;;;;;;20.08;7.75;;;;;;;8.44;100.00;100620.84;10444754;28;20061;-74
2023/09/23 02:43:49;;;;;;;13.35;7.45;;;;;;;8.35;100.00;100624.75;10444914;28;20059;-75
2023/09/23 02:48:49;;;;;;;19.38;10.90;;;;;;;8.38;100.00;100635.34;10441587;28;20140;-75
2023/09/23 02:53:50;;;;;;;13.07;6.65;;;;;;;8.34;100.00;100638.63;10443037;28;20170;-75
2023/09/23 02:58:52;;;;;;;12.93;5.95;;;;;;;8.47;100.00;100637.53;10443815;28;20029;-75
2023/09/23 03:03:55;;;;;;;12.20;5.77;;;;;;;8.43;100.00;100643.41;10444559;28;20034;-75
2023/09/23 03:08:58;;;;;;;9.95;4.72;;;;;;;8.50;100.00;100640.34;10442468;28;20043;-74
2023/09/23 03:13:58;;;;;;;10.88;5.75;;;;;;;8.50;100.00;100640.34;10443247;28;20555;-75
2023/09/23 03:19:11;;;;;;;17.17;5.85;;;;;;;8.47;100.00;100650.56;10440340;28;20040;-75
2023/09/23 03:24:11;;;;;;;10.40;5.47;;;;;;;8.38;100.00;100653.59;10443832;28;20120;-75
2023/09/23 03:29:13;;;;;;;8.07;4.72;;;;;;;8.43;100.00;100661.66;10430844;28;20037;-75
2023/09/23 03:34:14;;;;;;;15.13;6.20;;;;;;;8.37;100.00;100664.84;10439468;28;20033;-75
2023/09/23 03:39:17;;;;;;;10.55;4.53;;;;;;;8.29;100.00;100666.16;10441501;28;20480;-74
2023/09/23 03:44:17;;;;;;;14.43;6.25;;;;;;;8.33;100.00;100668.13;10422992;28;20444;-75
2023/09/23 03:49:18;;;;;;;15.07;6.47;;;;;;;8.39;100.00;100675.34;10400331;28;20156;-74
2023/09/23 03:54:18;;;;;;;14.55;5.68;;;;;;;8.33;100.00;100682.84;10401369;28;20573;-75
2023/09/23 03:59:19;;;;;;;12.38;5.85;;;;;;;8.32;100.00;100688.88;10401223;28;20167;-75
2023/09/23 04:04:19;;;;;;;17.50;5.60;;;;;;;8.39;100.00;100688.38;10400413;28;20057;-75
2023/09/23 04:09:20;;;;;;;12.23;4.45;;;;;;;8.36;100.00;100685.63;10399639;28;20036;-75
2023/09/23 04:14:21;;;;;;;12.32;6.05;;;;;;;8.38;100.00;100684.00;10399675;28;20071;-75
2023/09/23 04:19:22;;;;;;;8.43;5.15;;;;;;;8.36;100.00;100680.41;10400522;28;20042;-75
2023/09/23 04:24:22;;;;;;;11.85;5.93;;;;;;;8.35;100.00;100694.25;10397097;28;20049;-76
2023/09/23 04:29:23;;;;;;;21.25;6.25;;;;;;;8.40;100.00;100691.91;10398404;28;20045;-74
2023/09/23 04:34:26;;;;;;;14.43;6.55;;;;;;;8.37;100.00;100700.44;10398360;28;20049;-75
2023/09/23 04:39:27;;;;;;;12.07;6.75;;;;;;;8.35;100.00;100708.22;10397158;28;20045;-75
2023/09/23 04:44:27;;;;;;;18.85;8.15;;;;;;;8.38;100.00;100710.06;10389374;28;20125;-75
2023/09/23 04:49:28;;;;;;;18.20;10.32;;;;;;;8.37;100.00;100713.50;10394352;28;20056;-76
2023/09/23 04:54:28;;;;;;;17.65;9.63;;;;;;;8.46;100.00;100723.53;10396382;28;20038;-76
2023/09/23 04:59:32;;;;;;;9.20;5.53;;;;;;;8.33;100.00;100724.56;10398915;28;20692;-76
2023/09/23 05:04:32;;;;;;;15.20;7.05;;;;;;;8.40;100.00;100741.47;10394504;28;20073;-76
2023/09/23 05:09:34;;;;;;;15.27;6.70;;;;;;;8.38;100.00;100747.50;10394412;28;20037;-78
2023/09/23 05:14:35;;;;;;;16.23;7.75;;;;;;;8.30;100.00;100753.09;10399103;28;20053;-78
2023/09/23 05:19:35;;;;;;;13.52;7.22;;;;;;;8.23;100.00;100773.59;10394277;28;20382;-78
2023/09/23 05:24:37;;;;;;;11.40;5.80;;;;;;;8.21;100.00;100780.44;10398239;28;20072;-78
2023/09/23 05:29:38;;;;;;;17.65;9.45;;;;;;;8.25;100.00;100783.22;10406930;28;20058;-78
2023/09/23 05:34:39;;;;;;;12.52;7.40;;;;;;;8.09;100.00;100795.41;10400349;28;20099;-77
2023/09/23 05:39:45;;;;;;;13.07;7.25;;;;;;;8.06;100.00;100803.97;10403311;28;20033;-78
2023/09/23 05:44:46;;;;;;;13.18;7.10;;;;;;;8.05;100.00;100801.25;10421384;28;20033;-77
2023/09/23 05:49:47;;;;;;;12.23;7.78;;;;;;;8.14;100.00;100806.09;10409441;28;20107;-77
2023/09/23 05:54:48;;;;;;;14.80;8.55;;;;;;;8.21;100.00;100823.88;10404815;28;20076;-77
2023/09/23 05:59:48;;;;;;;9.93;6.05;;;;;;;8.27;100.00;100847.69;10403386;28;20086;-77
2023/09/23 06:04:49;;;;;;;8.80;5.65;;;;;;;8.24;100.00;100844.91;10402491;28;20499;-77
2023/09/23 06:09:50;;;;;;;12.52;6.05;;;;;;;8.50;100.00;100845.53;10411111;28;20038;-77
2023/09/23 06:14:50;;;;;;;10.73;6.45;;;;;;;8.70;100.00;100854.44;10400813;28;20112;-77
2023/09/23 06:19:51;;;;;;;9.80;5.63;;;;;;;8.65;100.00;100863.72;10404840;28;20071;-77
2023/09/23 06:24:52;;;;;;;7.50;4.45;;;;;;;8.88;100.00;100875.44;10416827;28;20046;-77
2023/09/23 06:29:53;;;;;;;17.48;6.60;;;;;;;9.32;100.00;100878.63;10396040;28;20183;-77
2023/09/23 06:34:53;;;;;;;9.10;4.95;;;;;;;9.41;100.00;100886.06;10393165;28;20447;-78
2023/09/23 06:39:54;;;;;;;10.48;6.97;;;;;;;9.54;100.00;100903.25;10404471;28;20489;-77
2023/09/23 06:44:54;;;;;;;11.25;5.47;;;;;;;11.15;100.00;100899.78;10399997;28;20065;-78
2023/09/23 06:49:55;;;;;;;9.35;2.70;;;;;;;12.42;100.00;100913.13;10399202;28;20594;-77
2023/09/23 06:54:56;;;;;;;3.83;1.98;;;;;;;13.08;100.00;100906.03;10405550;28;20049;-77
2023/09/23 06:59:56;;;;;;;5.03;1.85;;;;;;;13.86;100.00;100886.09;10408930;28;20048;-78
2023/09/23 07:04:57;;;;;;;8.82;2.00;;;;;;;14.76;100.00;100870.59;10394898;28;20045;-78
2023/09/23 07:09:57;;;;;;;5.55;2.20;;;;;;;15.44;100.00;100831.22;10395741;28;20171;-78
2023/09/23 07:14:58;;;;;;;3.20;2.00;;;;;;;15.90;100.00;100871.13;10372567;28;20083;-78
2023/09/23 07:19:59;;;;;;;4.63;2.73;;;;;;;15.99;100.00;100916.25;10382552;28;20409;-77
2023/09/23 07:25:00;;;;;;;4.75;1.60;;;;;;;16.18;100.00;100922.91;10397706;28;20076;-78
2023/09/23 07:30:00;;;;;;;6.03;2.47;;;;;;;16.81;100.00;100926.19;10395196;28;20094;-79
2023/09/23 07:35:01;;;;;;;6.47;2.78;;;;;;;16.64;100.00;100948.66;10417262;28;20086;-78
2023/09/23 07:40:02;;;;;;;5.55;1.63;;;;;;;17.22;100.00;100937.66;10406408;28;20091;-78
2023/09/23 07:45:04;;;;;;;7.63;1.65;;;;;;;16.98;100.00;100973.28;10389207;28;20056;-81
2023/09/23 07:50:05;;;;;;;4.00;1.70;;;;;;;17.30;100.00;100959.88;10416694;28;20473;-81
2023/09/23 07:55:06;;;;;;;4.75;2.03;;;;;;;16.03;100.00;100964.75;10386763;28;20264;-80
2023/09/23 08:00:08;;;;;;;10.27;2.35;;;;;;;14.92;100.00;100921.13;10421485;28;20045;-81
2023/09/23 08:05:09;;;;;;;6.10;2.65;;;;;;;14.36;100.00;100943.03;10408294;28;20124;-82
2023/09/23 08:10:10;;;;;;;11.75;3.55;;;;;;;13.97;100.00;100953.97;10425055;28;20055;-81
2023/09/23 08:15:11;;;;;;;8.68;2.58;;;;;;;13.65;100.00;100968.66;10410500;28;20514;-81
2023/09/23 08:20:18;;;;;;;3.93;1.83;;;;;;;13.47;100.00;100974.13;10424368;28;20553;-81
2023/09/23 08:25:19;;;;;;;5.78;2.88;;;;;;;13.73;100.00;100981.19;10395704;28;20075;-82
2023/09/23 08:30:20;;;;;;;8.00;3.85;;;;;;;14.10;100.00;101003.56;10424219;28;20091;-81
2023/09/23 08:35:20;;;;;;;9.32;2.72;;;;;;;13.98;100.00;101017.16;10409064;28;20033;-83
2023/09/23 08:40:21;;;;;;;5.78;2.63;;;;;;;13.73;100.00;101031.19;10414045;28;20125;-81
2023/09/23 08:45:22;;;;;;;7.00;2.83;;;;;;;13.84;100.00;101039.44;10421646;28;20495;-80
2023/09/23 08:50:23;;;;;;;5.05;2.88;;;;;;;14.08;100.00;101039.47;10393854;28;20051;-81
2023/09/23 08:55:25;;;;;;;7.10;3.17;;;;;;;14.63;100.00;101043.13;10421237;28;20041;-82
2023/09/23 09:00:26;;;;;;;9.48;2.83;;;;;;;14.60;100.00;101052.66;10422444;28;20044;-81
2023/09/23 09:05:40;;;;;;;10.15;3.72;;;;;;;14.52;100.00;101060.28;10415182;28;20405;-82
2023/09/23 09:10:41;;;;;;;7.63;3.10;;;;;;;14.58;100.00;101068.41;10411684;28;20049;-82
2023/09/23 09:15:42;;;;;;;6.03;3.78;;;;;;;14.77;100.00;101087.50;10435467;28;20571;-82
2023/09/23 09:20:43;;;;;;;5.90;2.55;;;;;;;14.36;100.00;101112.41;10437785;28;20045;-80
2023/09/23 09:25:47;;;;;;;4.82;2.47;;;;;;;14.53;100.00;101120.03;10471692;28;20047;-80
2023/09/23 09:30:50;;;;;;;4.50;1.90;;;;;;;15.05;100.00;101120.97;10439247;28;20041;-80
2023/09/23 09:35:57;;;;;;;11.38;2.47;;;;;;;15.04;100.00;101121.81;10434435;28;20079;-79
2023/09/23 09:41:04;;;;;;;8.80;2.78;;;;;;;15.18;100.00;101132.81;10431706;28;20481;-79
2023/09/23 09:46:08;;;;;;;4.68;1.90;;;;;;;14.56;100.00;101143.84;10417179;28;20546;-79
2023/09/23 09:51:09;;;;;;;5.82;1.77;;;;;;;14.09;100.00;101150.03;10435812;28;20532;-79
2023/09/23 09:56:09;;;;;;;7.43;2.80;;;;;;;13.95;100.00;101157.44;10415313;28;20171;-80
2023/09/23 10:01:13;;;;;;;12.05;2.60;;;;;;;14.00;100.00;101156.72;10421991;28;20476;-79
2023/09/23 10:06:22;;;;;;;6.50;2.00;;;;;;;15.93;100.00;101156.25;10431133;28;20473;-80
2023/09/23 10:11:36;;;;;;;4.28;1.60;;;;;;;16.00;100.00;101176.72;10431711;28;20048;-79
2023/09/23 10:16:37;;;;;;;7.03;1.95;;;;;;;16.62;100.00;101182.91;10426078;28;20129;-81
2023/09/23 10:21:38;;;;;;;7.00;2.10;;;;;;;16.61;100.00;101189.91;10437611;28;20045;-80
2023/09/23 10:26:39;;;;;;;4.20;1.70;;;;;;;17.02;100.00;101169.03;10420492;28;20037;-81
2023/09/23 10:31:39;;;;;;;8.63;3.08;;;;;;;16.44;100.00;101190.34;10416661;28;20072;-81
2023/09/23 10:36:40;;;;;;;6.20;2.00;;;;;;;16.40;100.00;101172.59;10422671;28;20154;-80
2023/09/23 10:41:41;;;;;;;3.33;1.85;;;;;;;15.91;100.00;101197.56;10414959;28;20045;-84
2023/09/23 10:46:41;;;;;;;5.45;1.85;;;;;;;16.66;100.00;101184.78;10445339;28;20128;-82
2023/09/23 10:51:42;;;;;;;6.00;2.45;;;;;;;18.99;100.00;101204.28;10431190;28;20120;-81
2023/09/23 10:56:42;;;;;;;7.07;2.47;;;;;;;19.57;100.00;101230.03;10430739;28;20047;-83
2023/09/23 11:01:45;;;;;;;4.65;1.83;;;;;;;20.54;100.00;101221.69;10445352;28;20043;-84
2023/09/23 11:06:45;;;;;;;4.35;1.73;;;;;;;18.77;100.00;101237.44;10443674;28;20147;-82
2023/09/23 11:11:46;;;;;;;6.85;1.85;;;;;;;17.30;100.00;101233.22;10413757;28;20041;-84
2023/09/23 11:16:47;;;;;;;5.30;2.00;;;;;;;16.53;100.00;101239.00;10400725;28;20048;-88
2023/09/23 11:21:47;;;;;;;6.63;1.80;;;;;;;16.17;100.00;101240.59;10369896;28;20040;-81
2023/09/23 11:26:48;;;;;;;8.85;2.28;;;;;;;16.24;100.00;101245.22;10395374;28;20041;-79
2023/09/23 11:31:48;;;;;;;4.80;2.03;;;;;;;16.15;100.00;101260.78;10380850;28;20040;-84
2023/09/23 11:36:52;;;;;;;7.57;1.75;;;;;;;17.61;100.00;101273.69;10400409;28;20033;-84
2023/09/23 11:41:57;;;;;;;5.78;2.22;;;;;;;19.29;100.00;101305.66;10382992;28;20386;-83
2023/09/23 11:46:58;;;;;;;2.97;1.27;;;;;;;21.80;100.00;101310.84;10400520;28;20073;-80
2023/09/23 11:51:59;;;;;;;10.47;3.07;;;;;;;21.08;100.00;101312.78;10400817;28;20037;-79
2023/09/23 11:56:59;;;;;;;3.83;2.00;;;;;;;18.74;100.00;101323.09;10396751;28;20053;-80
2023/09/23 12:02:00;;;;;;;4.35;1.65;;;;;;;19.63;100.00;101320.41;10395495;28;20464;-80
2023/09/23 12:07:00;;;;;;;4.97;2.13;;;;;;;19.34;100.00;101342.00;10394524;28;20048;-79
2023/09/23 12:12:01;;;;;;;9.95;2.15;;;;;;;20.40;100.00;101349.09;10397712;28;20053;-82
2023/09/23 12:17:03;;;;;;;9.52;2.85;;;;;;;19.96;100.00;101352.88;10378439;28;20041;-83
2023/09/23 12:22:04;;;;;;;5.35;1.50;;;;;;;;;;10398117;28;20049;-83
2023/09/23 12:27:04;;;;;;;4.27;1.63;;;;;;;22.72;100.00;101374.59;10398131;28;20041;-82
2023/09/23 12:32:05;;;;;;;6.30;1.73;;;;;;;22.55;100.00;101379.81;10399625;28;20061;-84
2023/09/23 12:37:05;;;;;;;3.43;1.50;;;;;;;21.20;100.00;101364.34;10378212;28;20040;-83
2023/09/23 12:42:06;;;;;;;13.47;2.63;;;;;;;22.98;100.00;101379.16;10414723;28;20128;-84
2023/09/23 12:47:06;;;;;;;3.40;1.63;;;;;;;23.10;100.00;101391.66;10380953;28;20042;-81
2023/09/23 12:52:07;;;;;;;4.33;1.50;;;;;;;21.08;100.00;101379.31;10412469;28;20091;-83
2023/09/23 12:57:08;;;;;;;3.63;1.83;;;;;;;21.40;100.00;101389.44;10397920;28;20120;-82
2023/09/23 13:02:08;;;;;;;3.87;1.53;;;;;;;21.08;100.00;101399.72;10395516;28;20073;-80
2023/09/23 13:07:09;;;;;;;2.83;1.83;;;;;;;18.74;100.00;101389.38;10398221;28;20171;-82
2023/09/23 13:12:09;;;;;;;6.50;1.83;;;;;;;17.35;100.00;101384.13;10411397;28;20045;-81
2023/09/23 13:17:10;;;;;;;4.05;1.67;;;;;;;16.70;100.00;101377.81;10393829;28;20568;-79
2023/09/23 13:22:10;;;;;;;6.00;2.85;;;;;;;17.01;100.00;101376.13;10397718;28;20538;-80
2023/09/23 13:27:11;;;;;;;6.45;2.47;;;;;;;18.29;100.00;101382.16;10396008;28;20037;-79
2023/09/23 13:32:12;;;;;;;3.58;1.10;;;;;;;21.17;100.00;101397.16;10394429;28;20049;-81
2023/09/23 13:37:13;;;;;;;5.53;1.47;;;;;;;19.58;100.00;101411.47;10379919;28;20041;-81
2023/09/23 13:42:13;;;;;;;5.10;1.70;;;;;;;19.42;100.00;101411.16;10397881;28;20045;-80
2023/09/23 13:47:14;;;;;;;2.67;1.42;;;;;;;19.08;100.00;101421.97;10410637;28;20043;-80
2023/09/23 13:52:14;;;;;;;4.18;1.63;;;;;;;17.98;100.00;101429.03;10404139;28;20044;-82
2023/09/23 13:57:15;;;;;;;3.05;1.45;;;;;;;17.36;100.00;101417.69;10406423;28;20041;-81
2023/09/23 14:02:17;;;;;;;3.72;2.60;;;;;;;18.24;100.00;101426.19;10405241;28;20128;-82
2023/09/23 14:07:18;;;;;;;7.18;2.78;;;;;;;17.53;100.00;101430.50;10403254;28;20045;-79
2023/09/23 14:12:19;;;;;;;5.85;1.80;;;;;;;16.83;100.00;101436.34;10401268;28;20110;-81
2023/09/23 14:17:22;;;;;;;9.10;2.08;;;;;;;15.82;100.00;101462.06;10401610;28;20111;-82
2023/09/23 14:22:23;;;;;;;2.80;1.73;;;;;;;14.33;100.00;101454.59;10403161;28;20124;-78
2023/09/23 14:27:23;;;;;;;6.18;2.38;;;;;;;13.40;100.00;101442.66;10401817;28;20392;-78
2023/09/23 14:32:24;;;;;;;6.15;3.15;;;;;;;12.95;100.00;101430.13;10394118;28;20396;-78
2023/09/23 14:37:26;;;;;;;7.40;3.33;;;;;;;12.92;100.00;101422.09;10405107;28;20120;-77
2023/09/23 14:42:26;;;;;;;7.68;3.38;;;;;;;12.82;100.00;101418.09;10417892;28;20041;-78
2023/09/23 14:47:27;;;;;;;5.57;3.35;;;;;;;12.90;100.00;101413.25;10384745;28;20092;-81
2023/09/23 14:52:27;;;;;;;9.45;3.58;;;;;;;12.91;100.00;101422.91;10400430;28;20037;-79
2023/09/23 14:57:28;;;;;;;7.05;3.88;;;;;;;12.82;100.00;101435.63;10402466;28;20484;-79
2023/09/23 15:02:28;;;;;;;6.38;4.55;;;;;;;12.71;100.00;101448.22;10399139;28;20037;-78
2023/09/23 15:07:29;;;;;;;6.10;4.25;;;;;;;12.69;100.00;101442.91;10400704;28;20167;-78
2023/09/23 15:12:29;;;;;;;12.88;5.35;;;;;;;12.73;100.00;101452.72;10401559;28;20554;-78
2023/09/23 15:17:30;;;;;;;12.10;5.18;;;;;;;13.01;100.00;101456.69;10476111;28;20116;-80
2023/09/23 15:22:31;;;;;;;7.80;4.40;;;;;;;13.28;100.00;101456.16;10426418;28;20385;-79
2023/09/23 15:27:32;;;;;;;7.70;4.87;;;;;;;13.50;100.00;101470.31;10421233;28;20099;-79
2023/09/23 15:32:34;;;;;;;7.78;4.72;;;;;;;13.45;100.00;101461.31;10384306;28;20360;-81
2023/09/23 15:37:35;;;;;;;8.57;5.40;;;;;;;13.43;100.00;101468.25;10403092;28;20132;-81
2023/09/23 15:42:36;;;;;;;8.15;5.32;;;;;;;13.44;100.00;101473.56;10427998;28;20057;-81
2023/09/23 15:47:36;;;;;;;7.35;5.30;;;;;;;13.35;100.00;101486.25;10417125;28;20034;-82
2023/09/23 15:52:37;;;;;;;9.48;5.78;;;;;;;13.35;100.00;101491.50;10416545;28;20507;-82
2023/09/23 15:57:39;;;;;;;12.10;6.03;;;;;;;13.62;100.00;101491.00;10415171;28;20094;-81
2023/09/23 16:02:40;;;;;;;8.80;5.17;;;;;;;13.88;100.00;101502.69;10407061;28;20037;-82
2023/09/23 16:07:40;;;;;;;6.47;5.15;;;;;;;13.83;100.00;101491.06;10432163;28;20032;-82
2023/09/23 16:12:41;;;;;;;12.00;5.85;;;;;;;13.67;100.00;101500.00;10462595;28;20040;-81
2023/09/23 16:17:41;;;;;;;6.53;4.20;;;;;;;13.58;100.00;101508.38;10441530;28;20112;-83
2023/09/23 16:22:42;;;;;;;21.70;7.45;;;;;;;13.58;100.00;101516.28;10441035;28;20128;-82
2023/09/23 16:27:43;;;;;;;7.82;4.82;;;;;;;13.51;100.00;101520.34;10440310;28;20106;-82
2023/09/23 16:32:44;;;;;;;9.38;5.93;;;;;;;13.53;100.00;101527.41;10439911;28;20036;-82
2023/09/23 16:37:45;;;;;;;9.18;4.82;;;;;;;13.51;100.00;101538.75;10439796;28;20127;-82
2023/09/23 16:42:46;;;;;;;10.75;6.38;;;;;;;13.46;100.00;101544.63;10438270;28;20510;-83
2023/09/23 16:47:47;;;;;;;13.20;8.98;;;;;;;13.36;100.00;101559.94;10439400;28;20049;-82
2023/09/23 16:52:48;;;;;;;10.10;7.53;;;;;;;13.29;100.00;101564.81;10419385;28;20127;-83
2023/09/23 16:57:48;;;;;;;11.30;8.48;;;;;;;13.15;100.00;101575.56;10438829;28;20116;-82
2023/09/23 17:02:50;;;;;;;16.83;9.20;;;;;;;13.00;100.00;101581.00;10438508;28;20047;-82
2023/09/23 17:07:50;;;;;;;12.52;9.07;;;;;;;12.90;100.00;101591.88;10439389;28;20136;-82
2023/09/23 17:12:51;;;;;;;16.90;9.88;;;;;;;12.82;100.00;101603.72;10434663;28;20037;-82
2023/09/23 17:17:52;;;;;;;13.63;9.40;;;;;;;12.71;100.00;101616.31;10439081;28;20061;-82
2023/09/23 17:22:52;;;;;;;18.60;10.63;;;;;;;12.55;100.00;101619.88;10413196;28;20045;-82
2023/09/23 17:27:53;;;;;;;15.70;11.20;;;;;;;12.27;100.00;101631.56;10440283;28;20064;-82
2023/09/23 17:32:54;;;;;;;20.80;12.20;;;;;;;12.02;100.00;101628.53;10419794;28;20045;-82
2023/09/23 17:37:54;;;;;;;19.25;12.82;;;;;;;11.78;100.00;101621.91;10390642;28;20038;-82
2023/09/23 17:42:55;;;;;;;21.85;13.35;;;;;;;11.58;100.00;101635.72;10415432;28;20128;-82
2023/09/23 17:47:55;;;;;;;20.60;14.50;;;;;;;11.45;100.00;101642.00;10437574;28;20139;-82
2023/09/23 17:52:56;;;;;;;20.05;13.73;;;;;;;11.34;100.00;101652.69;10438545;28;20480;-81
2023/09/23 17:57:56;;;;;;;31.35;16.17;;;;;;;11.19;100.00;101663.19;10437379;28;20055;-82
2023/09/23 18:02:57;;;;;;;12.80;8.80;;;;;;;11.08;100.00;101671.31;10435161;28;20521;-83
2023/09/23 18:07:57;;;;;;;17.23;12.25;;;;;;;10.94;100.00;101672.22;10438183;28;20035;-81
2023/09/23 18:12:58;;;;;;;18.58;12.43;;;;;;;10.83;100.00;101677.72;10438847;28;20376;-81
2023/09/23 18:17:58;;;;;;;17.90;12.45;;;;;;;10.81;100.00;101689.84;10436641;28;20116;-81
2023/09/23 18:22:59;;;;;;;21.15;12.75;;;;;;;10.78;100.00;101705.34;10436602;28;20120;-82
2023/09/23 18:28:00;;;;;;;16.10;11.85;;;;;;;10.64;100.00;101715.00;10437188;28;20447;-81
2023/09/23 18:33:00;;;;;;;20.45;12.60;;;;;;;10.48;100.00;101730.59;10437273;28;20049;-81
2023/09/23 18:38:01;;;;;;;22.38;14.35;;;;;;;10.37;100.00;101736.03;10444686;28;20033;-81
2023/09/23 18:43:02;;;;;;;23.20;13.88;;;;;;;10.35;100.00;101732.41;10443752;28;20549;-81
2023/09/23 18:48:02;;;;;;;25.98;14.98;;;;;;;10.31;100.00;101742.56;10443619;28;20132;-81
2023/09/23 18:53:03;;;;;;;20.55;14.90;;;;;;;10.11;100.00;101756.22;10439703;28;20109;-81
2023/09/23 18:58:05;;;;;;;19.38;13.02;;;;;;;10.04;100.00;101763.56;10444450;28;20507;-81
2023/09/23 19:03:08;;;;;;;20.65;14.32;;;;;;;10.03;100.00;101772.22;10441715;28;20047;-81
2023/09/23 19:08:09;;;;;;;20.10;13.52;;;;;;;9.96;100.00;101787.50;10441377;28;20438;-81
2023/09/23 19:13:10;;;;;;;22.75;14.77;;;;;;;9.89;100.00;101795.75;10443210;28;20119;-81
2023/09/23 19:18:10;;;;;;;23.73;15.93;;;;;;;9.89;100.00;101795.75;10443497;28;20037;-81
2023/09/23 19:23:13;;;;;;;21.73;14.55;;;;;;;9.81;100.00;101812.66;10425448;28;20064;-82
2023/09/23 19:28:14;;;;;;;21.67;14.25;;;;;;;9.67;100.00;101815.25;10438206;28;20071;-81
2023/09/23 19:33:15;;;;;;;23.92;15.10;;;;;;;9.55;100.00;101823.19;10436171;28;20033;-82
2023/09/23 19:38:15;;;;;;;25.10;17.42;;;;;;;9.43;100.00;101832.81;10423352;28;20055;-82
2023/09/23 19:43:17;;;;;;;20.25;14.02;;;;;;;9.38;100.00;101839.44;10441471;28;20035;-82
2023/09/23 19:48:18;;;;;;;27.40;15.98;;;;;;;9.32;100.00;101845.13;10439581;28;20188;-82
2023/09/23 19:53:18;;;;;;;28.10;17.23;;;;;;;9.28;100.00;101848.34;10442769;28;20029;-82
2023/09/23 19:58:20;;;;;;;28.15;16.75;;;;;;;9.22;100.00;101860.97;10406957;28;20048;-83
2023/09/23 20:03:21;;;;;;;25.25;15.35;;;;;;;9.15;100.00;101858.75;10422443;28;20064;-83
2023/09/23 20:08:22;;;;;;;26.00;16.20;;;;;;;9.16;100.00;101864.09;10441485;28;20056;-82
2023/09/23 20:13:22;;;;;;;20.83;11.75;;;;;;;9.09;100.00;101873.19;10441261;28;20037;-82
2023/09/23 20:18:23;;;;;;;28.33;18.70;;;;;;;9.05;100.00;101875.50;10439821;28;20118;-83
2023/09/23 20:23:24;;;;;;;40.60;19.10;;;;;;;8.99;100.00;101885.50;10439444;28;20044;-82
2023/09/23 20:28:26;;;;;;;28.45;17.95;;;;;;;9.03;100.00;101883.22;10440474;28;20053;-83
2023/09/23 20:33:27;;;;;;;26.53;18.20;;;;;;;8.95;100.00;101898.34;10435781;28;20121;-82
2023/09/23 20:38:27;;;;;;;22.27;15.48;;;;;;;8.86;100.00;101899.38;10439530;28;20480;-84
2023/09/23 20:43:29;;;;;;;30.35;17.40;;;;;;;8.80;100.00;101902.47;10439043;28;20039;-82
2023/09/23 20:48:30;;;;;;;28.67;17.70;;;;;;;8.74;100.00;101910.75;10439279;28;20120;-82
2023/09/23 20:53:34;;;;;;;35.50;21.77;;;;;;;8.69;100.00;101906.03;10438861;28;20306;-83
2023/09/23 20:58:34;;;;;;;37.55;20.92;;;;;;;8.60;100.00;101916.69;10439525;28;20049;-82
2023/09/23 21:03:35;;;;;;;34.75;20.35;;;;;;;8.61;100.00;101923.72;10428861;28;20124;-82
2023/09/23 21:08:36;;;;;;;28.23;18.75;;;;;;;8.55;100.00;101924.19;10437028;28;20435;-82
2023/09/23 21:13:36;;;;;;;36.70;20.42;;;;;;;8.56;100.00;101927.69;10409858;28;20045;-82
2023/09/23 21:18:37;;;;;;;32.85;22.23;;;;;;;8.59;100.00;101922.69;10439795;28;20775;-83
2023/09/23 21:23:38;;;;;;;36.47;21.55;;;;;;;8.55;100.00;101932.03;10439313;28;20025;-83
2023/09/23 21:28:38;;;;;;;31.85;20.52;;;;;;;8.47;100.00;101933.13;10436839;28;20055;-83
2023/09/23 21:33:39;;;;;;;27.27;16.73;;;;;;;8.37;100.00;101939.38;10437453;28;20111;-83
2023/09/23 21:38:39;;;;;;;37.90;19.55;;;;;;;8.35;100.00;101954.00;10402285;28;20508;-82
2023/09/23 21:43:40;;;;;;;52.28;21.08;;;;;;;8.31;100.00;101955.47;10423602;28;20041;-82
2023/09/23 21:48:41;;;;;;;40.85;21.75;;;;;;;8.27;100.00;101963.88;10415143;28;20071;-82
2023/09/23 21:53:41;;;;;;;29.63;19.05;;;;;;;8.21;100.00;101961.69;10436865;28;20128;-82
2023/09/23 21:58:42;;;;;;;35.20;20.52;;;;;;;8.14;100.00;101968.97;10437687;28;20045;-82
2023/09/23 22:03:42;;;;;;;26.85;17.33;;;;;;;8.04;100.00;101965.66;10446562;28;20029;-82
2023/09/23 22:08:43;;;;;;;39.88;21.80;;;;;;;7.93;100.00;101970.03;10439747;28;20450;-82
2023/09/23 22:13:44;;;;;;;34.15;17.67;;;;;;;7.87;100.00;101973.91;10470894;28;20395;-82
2023/09/23 22:18:45;;;;;;;34.63;18.38;;;;;;;7.84;100.00;101979.78;10433110;28;20052;-82
2023/09/23 22:23:47;;;;;;;42.55;18.60;;;;;;;7.83;100.00;101985.78;10444701;28;20622;-82
2023/09/23 22:28:48;;;;;;;35.78;17.27;;;;;;;7.75;100.00;101974.78;10446779;28;20033;-82
2023/09/23 22:33:48;;;;;;;38.80;20.10;;;;;;;7.68;100.00;101984.59;10445936;28;20480;-82
2023/09/23 22:38:49;;;;;;;27.40;16.02;;;;;;;7.63;100.00;101992.97;10443456;28;20037;-82
2023/09/23 22:43:49;;;;;;;25.85;16.70;;;;;;;7.62;100.00;101980.72;10445222;28;20657;-82